x

Edisto - 41 Nm Southeast Of Charleston, Sc (41004) Wave Buoy

6:50am - Wed 27th May 2015 All times are EDT. -4 hours from GMT.

  • Sig Wave height 3.3ft
  • Swell Direction
  • Peak Period 7s
  • Average Period 5s
  • Wind
    11mph, 13mph gusts
  • Sea Temp 76°f
  • Air Temp 77°f
  • Sea Pressure 1022.8mb
  • Edisto - 41 Nm Southeast Of Charleston, Sc
  • Edisto - 41 Nm Southeast Of Charleston, Sc

More Historic Weather Station data

Upgrade to MSW Pro to gain access to the past 30 days of data for over 8000 Wavebouys and Weather Stations around the globe.

Join Pro

Comparision Forecast

View Surf forecast
   
Wed 05/27 6:50am 3.5ft 7s 5s 11 13 mph 1022.8mb 76f 77f
5:50am 3.5ft 7s 5s 13 16 mph 1022mb 76f 77f
4:50am 3.5ft 7s 5s 13 16 mph 1021.9mb 76f 78f
3:50am 3ft 7s 5s 11
mph
1022.4mb 76f 78f
2:50am 3ft 7s 5s 9 11 mph 1023.1mb 76f 78f
1:50am 3.5ft 7s 5s 9 11 mph 1023.5mb 76f 78f
12:50am 3.5ft 7s 5s 11 13 mph 1024mb 76f 78f
Tue 05/26 11:50pm 3.5ft 7s 5s 13 16 mph 1024.4mb 76f 78f
10:50pm 3.5ft 7s 4s 13 16 mph 1024.6mb 76f 78f
9:50pm 4ft 6s 5s 13 16 mph 1024mb 76f 78f
8:50pm 3.5ft 7s 4s 16 18 mph 1023.5mb 76f 78f
7:50pm 3.5ft 6s 5s 16 18 mph 1023.5mb 76f 78f
6:50pm 3.5ft 6s 5s 13 16 mph 1022.8mb 76f 78f
5:50pm 3ft 7s 5s 11 13 mph 1023mb 76f 76f
4:50pm 3ft 6s 5s 11 13 mph 1023.3mb 77f 75f
3:50pm 3.5ft 6s 5s 9 11 mph 1023.7mb 77f 75f
2:50pm 3ft 6s 5s 13 18 mph 1023.9mb 78f 76f
12:50pm 3ft 6s 5s 7 9 mph 1024.9mb 78f 77f
11:50am 2.5ft 6s 5s 4
mph
1025.2mb 77f 78f
10:50am 3ft 6s 5s 2
mph
1025.1mb 77f 78f
9:50am 3ft 7s 5s  -  2 mph 1025.2mb 76f 78f
8:50am 3ft 5s 5s 4
mph
1025.1mb 76f 78f
7:50am 3.5ft 6s 5s 4 7 mph 1024.5mb 76f 77f
6:50am 3.5ft 6s 5s 7
mph
1023.9mb 76f 78f
5:50am 3.5ft 7s 5s 9 11 mph 1023.1mb 76f 78f
4:50am 3.5ft 6s 5s 11 13 mph 1022.9mb 76f 78f
3:50am 3.5ft 6s 5s 11 13 mph 1022.8mb 75f 78f
2:50am 3.5ft 6s 5s 9 11 mph 1023.1mb 75f 77f
1:50am 3.5ft 7s 5s 11 13 mph 1023.4mb 75f 77f
12:50am 3.5ft 6s 5s 7 9 mph 1024mb 75f 75f
Mon 05/25 11:50pm 3.5ft 6s 5s 13
mph
1024.3mb 75f 75f
10:50pm 3.5ft 6s 5s 13 16 mph 1024.6mb 75f 75f
9:50pm 3.5ft 7s 5s 13 18 mph 1024.3mb 75f 75f
8:50pm 3.5ft 6s 5s 16 18 mph 1024mb 75f 76f
7:50pm 3.5ft 7s 5s 13 16 mph 1024.3mb 76f 76f
6:50pm 3.5ft 6s 5s 13 16 mph 1024.1mb 76f 76f
5:50pm 3.5ft 6s 5s 11 13 mph 1024.3mb 76f 76f
4:50pm 3.5ft 6s 5s 11 13 mph 1024.7mb 76f 76f
3:50pm 3.5ft 7s 5s 11 16 mph 1024.9mb 76f 76f
2:50pm 3.5ft 7s 5s 11 13 mph 1025.3mb 76f 76f
1:50pm 3.5ft 7s 5s 11 16 mph 1025.6mb 76f 76f
12:50pm 4ft 8s 5s 13
mph
1026.1mb 75f 76f
11:50am 4ft 7s 5s 13
mph
1026.1mb 75f 76f
10:50am 4.5ft 7s 5s 13 16 mph 1026.2mb 75f 75f
9:50am 4ft 7s 5s 13
mph
1026.2mb 75f 75f
8:50am 4.5ft 8s 5s 13 16 mph 1025.9mb 75f 75f
7:50am 4.5ft 7s 5s 11 13 mph 1025.6mb 75f 75f
6:50am 5ft 7s 5s 11 13 mph 1025.2mb 75f 75f
5:50am 4.5ft 8s 5s 13 16 mph 1024.9mb 75f 74f
4:50am 5ft 8s 6s 11 13 mph 1024.8mb 75f 74f
3:50am 5ft 7s 5s 16 18 mph 1024.6mb 75f 74f
2:50am 5ft 7s 5s 16 18 mph 1024.9mb 75f 74f
1:50am 5.5ft 7s 5s 16 22 mph 1025.1mb 75f 74f
12:50am 5ft 7s 5s 18 22 mph 1025.3mb 75f 74f
Sun 05/24 11:50pm 4.5ft 8s 5s 18 22 mph 1025.8mb 76f 75f
10:50pm 4.5ft 8s 5s 18 20 mph 1026mb 75f 75f
9:50pm 5.5ft 8s 5s 16 20 mph 1026mb 75f 75f
8:50pm 5.5ft 7s 5s 20 22 mph 1025.5mb 75f 75f
7:50pm 5.5ft 7s 5s 20 25 mph 1025.4mb 75f 76f
6:50pm 5ft 7s 5s 20 22 mph 1025.4mb 75f 76f
5:50pm 5ft 5s 5s 18 25 mph 1025.5mb 75f 76f
4:50pm 5ft 7s 5s 18 22 mph 1025.6mb 75f 76f
3:50pm 4.5ft 8s 5s 16 18 mph 1026.2mb 75f 76f
2:50pm 4.5ft 7s 5s 18 20 mph 1026.6mb 75f 76f
1:50pm 4.5ft 8s 5s 18 20 mph 1026.9mb 75f 76f
12:50pm 4.5ft 7s 5s 18 20 mph 1027.4mb 75f 75f
11:50am 4.5ft 8s 5s 18 22 mph 1027.6mb 75f 75f
10:50am 4.5ft 7s 5s 18 22 mph 1027.5mb 75f 75f
9:50am 4.5ft 5s 5s 16 20 mph 1027.4mb 75f 75f
8:50am 4.5ft 7s 5s 18 20 mph 1027.3mb 75f 75f
7:50am 4.5ft 7s 5s 18 20 mph 1027mb 75f 75f
6:50am 4.5ft 5s 5s 16 20 mph 1026.9mb 75f 74f
5:50am 5ft 6s 5s 16 20 mph 1026.4mb 75f 74f
4:50am 5ft 7s 5s 18 20 mph 1026mb 75f 74f
3:50am 5ft 6s 5s 18 22 mph 1025.6mb 75f 74f
2:50am 5ft 6s 5s 18 22 mph 1025.8mb 75f 74f
1:50am 5ft 6s 5s 20 25 mph 1025.9mb 75f 75f
12:50am 5ft 6s 5s 20 22 mph 1026.6mb 75f 75f
Sat 05/23 11:50pm 4.5ft 6s 5s 20 22 mph 1027mb 75f 75f
10:50pm 4.5ft 5s 5s 20 22 mph 1027mb 75f 75f
9:50pm 4.5ft 7s 5s 18 22 mph 1026.6mb 76f 75f
8:50pm 4.5ft 6s 5s 20 22 mph 1026.4mb 76f 75f
7:50pm 4.5ft 6s 5s 18 22 mph 1026.6mb 76f 75f
6:50pm 4.5ft 6s 5s 18 22 mph 1026.6mb 76f 76f
5:50pm 4.5ft 5s 5s 20 22 mph 1026.6mb 76f 75f
4:50pm 4.5ft 5s 5s 18 22 mph 1026.9mb 76f 75f
3:50pm 4ft 5s 4s 18 22 mph 1026.9mb 75f 75f
2:50pm 3.5ft 6s 5s 16 20 mph 1027.2mb 75f 75f
1:50pm 4ft 5s 4s 18 20 mph 1027.3mb 75f 74f
12:50pm 4ft 5s 4s 18 22 mph 1027.6mb 75f 73f